createdAt,value
2018-06-16T00:00:17.000Z,0
2018-06-16T00:01:26.165Z,0
2018-06-16T00:02:35.885Z,0
2018-06-16T00:03:45.044Z,0
2018-06-16T00:04:54.977Z,0
2018-06-16T00:06:04.412Z,0
2018-06-16T00:07:14.349Z,0
2018-06-16T00:08:24.028Z,0
2018-06-16T00:09:33.205Z,0
2018-06-16T00:10:42.941Z,0
2018-06-16T00:11:52.103Z,0
2018-06-16T00:13:01.816Z,0
2018-06-16T00:14:11.253Z,0
2018-06-16T00:15:20.404Z,0
2018-06-16T00:16:29.614Z,0
2018-06-16T00:17:38.772Z,0
2018-06-16T00:18:48.465Z,0
2018-06-16T00:19:57.914Z,0
2018-06-16T00:21:07.336Z,0
2018-06-16T00:22:17.054Z,0
2018-06-16T00:23:25.956Z,0
2018-06-16T00:24:35.117Z,0
2018-06-16T00:25:44.275Z,0
2018-06-16T00:26:53.716Z,0
2018-06-16T00:28:03.225Z,0
2018-06-16T00:29:12.390Z,0
2018-06-16T00:30:21.286Z,0
2018-06-16T00:31:30.465Z,0
2018-06-16T00:32:40.390Z,0
2018-06-16T00:33:49.552Z,0
2018-06-16T00:34:58.981Z,0
2018-06-16T00:36:08.180Z,0
2018-06-16T00:37:17.897Z,0
2018-06-16T00:38:27.441Z,0
2018-06-16T00:39:36.662Z,0
2018-06-16T00:40:46.134Z,0
2018-06-16T00:41:55.587Z,0
2018-06-16T00:43:05.071Z,0
2018-06-16T00:44:14.684Z,0
2018-06-16T00:45:24.400Z,0
2018-06-16T00:46:33.722Z,0
2018-06-16T00:47:43.276Z,0
2018-06-16T00:48:52.682Z,0
2018-06-16T00:50:01.852Z,0
2018-06-16T00:51:11.009Z,0
2018-06-16T00:52:19.923Z,0
2018-06-16T00:53:29.325Z,0
2018-06-16T00:54:39.004Z,0
2018-06-16T00:55:48.439Z,0
2018-06-16T00:56:57.859Z,0
2018-06-16T00:58:07.304Z,0
2018-06-16T00:59:16.980Z,0
2018-06-16T01:00:26.413Z,0
2018-06-16T01:01:35.333Z,0
2018-06-16T01:02:45.036Z,0
2018-06-16T01:03:54.976Z,0
2018-06-16T01:05:04.401Z,0
2018-06-16T01:06:13.571Z,0
2018-06-16T01:07:22.481Z,0
2018-06-16T01:08:31.669Z,0
2018-06-16T01:09:41.348Z,0
2018-06-16T01:10:50.765Z,0
2018-06-16T01:12:00.177Z,0
2018-06-16T01:13:09.355Z,0
2018-06-16T01:14:18.334Z,0
2018-06-16T01:15:27.784Z,0
2018-06-16T01:16:37.212Z,0
2018-06-16T01:17:46.925Z,0
2018-06-16T01:18:56.612Z,0
2018-06-16T01:20:06.291Z,0
2018-06-16T01:21:15.481Z,0
2018-06-16T01:22:25.195Z,0
2018-06-16T01:23:34.152Z,0
2018-06-16T01:24:43.595Z,0
2018-06-16T01:25:53.297Z,0
2018-06-16T01:27:03.004Z,0
2018-06-16T01:28:12.968Z,0
2018-06-16T01:29:22.637Z,0
2018-06-16T01:30:31.809Z,0
2018-06-16T01:31:41.493Z,0
2018-06-16T01:32:50.922Z,0
2018-06-16T01:34:00.355Z,0
2018-06-16T01:35:09.560Z,0
2018-06-16T01:36:18.485Z,0
2018-06-16T01:37:27.659Z,0
2018-06-16T01:38:37.127Z,0
2018-06-16T01:39:46.306Z,0
2018-06-16T01:40:55.488Z,0
2018-06-16T01:42:04.668Z,0
2018-06-16T01:43:13.850Z,0
2018-06-16T01:44:23.523Z,0
2018-06-16T01:45:32.932Z,0
2018-06-16T01:46:42.369Z,0
2018-06-16T01:47:51.334Z,0
2018-06-16T01:49:00.745Z,0
2018-06-16T01:50:09.909Z,0
2018-06-16T01:51:19.073Z,0
2018-06-16T01:52:28.517Z,0
2018-06-16T01:53:37.923Z,0
2018-06-16T01:54:47.351Z,0
2018-06-16T01:55:56.779Z,0
2018-06-16T01:57:06.719Z,0
2018-06-16T01:58:15.635Z,0
2018-06-16T01:59:25.114Z,0
2018-06-16T02:00:34.284Z,0
2018-06-16T02:01:43.191Z,0
2018-06-16T02:02:52.635Z,0
2018-06-16T02:04:01.807Z,0
2018-06-16T02:05:11.228Z,0
2018-06-16T02:06:20.915Z,0
2018-06-16T02:07:30.612Z,0
2018-06-16T02:08:39.522Z,0
2018-06-16T02:09:48.689Z,0
2018-06-16T02:10:58.113Z,0
2018-06-16T02:12:07.580Z,0
2018-06-16T02:13:17.008Z,0
2018-06-16T02:14:26.684Z,0
2018-06-16T02:15:36.355Z,0
2018-06-16T02:16:46.051Z,0
2018-06-16T02:17:55.743Z,0
2018-06-16T02:19:05.710Z,0
2018-06-16T02:20:15.131Z,0
2018-06-16T02:21:24.565Z,0
2018-06-16T02:22:33.212Z,0
2018-06-16T02:23:42.914Z,0
2018-06-16T02:24:52.088Z,0
2018-06-16T02:26:01.808Z,0
2018-06-16T02:27:11.486Z,0
2018-06-16T02:28:20.941Z,0
2018-06-16T02:29:30.355Z,0
2018-06-16T02:30:39.799Z,0
2018-06-16T02:31:49.226Z,0
2018-06-16T02:32:58.903Z,0
2018-06-16T02:34:08.329Z,0
2018-06-16T02:35:17.752Z,0
2018-06-16T02:36:27.461Z,0
2018-06-16T02:37:36.916Z,0
2018-06-16T02:38:46.445Z,0
2018-06-16T02:39:56.130Z,0
2018-06-16T02:41:05.807Z,0
2018-06-16T02:42:14.984Z,0
2018-06-16T02:43:24.694Z,0
2018-06-16T02:44:33.859Z,0
2018-06-16T02:45:43.803Z,0
2018-06-16T02:46:53.257Z,0
2018-06-16T02:48:02.684Z,0
2018-06-16T02:49:11.882Z,0
2018-06-16T02:50:22.147Z,0
2018-06-16T02:51:32.068Z,0
2018-06-16T02:52:41.497Z,0
2018-06-16T02:53:50.478Z,0
2018-06-16T02:54:59.906Z,0
2018-06-16T02:56:09.373Z,0
2018-06-16T02:57:18.816Z,0
2018-06-16T02:58:27.985Z,0
2018-06-16T02:59:37.413Z,0
2018-06-16T03:00:47.129Z,0
2018-06-16T03:01:56.855Z,0
2018-06-16T03:03:06.827Z,0
2018-06-16T03:04:16.257Z,0
2018-06-16T03:05:25.963Z,0
2018-06-16T03:06:35.948Z,0
2018-06-16T03:07:45.393Z,0
2018-06-16T03:08:54.826Z,0
2018-06-16T03:10:04.268Z,0
2018-06-16T03:11:13.952Z,0
2018-06-16T03:12:23.373Z,0
2018-06-16T03:13:32.823Z,0
2018-06-16T03:14:42.797Z,0
2018-06-16T03:15:52.499Z,0
2018-06-16T03:17:01.920Z,0
2018-06-16T03:18:11.082Z,0
2018-06-16T03:19:20.506Z,0
2018-06-16T03:20:29.993Z,0
2018-06-16T03:21:38.909Z,0
2018-06-16T03:22:47.833Z,0
2018-06-16T03:23:57.252Z,0
2018-06-16T03:25:06.678Z,0
2018-06-16T03:26:16.383Z,0
2018-06-16T03:27:25.817Z,0
2018-06-16T03:28:35.515Z,0
2018-06-16T03:29:44.924Z,0
2018-06-16T03:30:54.366Z,0
2018-06-16T03:32:04.307Z,0
2018-06-16T03:33:13.480Z,0
2018-06-16T03:34:23.158Z,0
2018-06-16T03:35:32.340Z,0
2018-06-16T03:36:41.498Z,0
2018-06-16T03:37:50.935Z,0
2018-06-16T03:39:00.092Z,0
2018-06-16T03:40:09.526Z,0
2018-06-16T03:41:18.449Z,0
2018-06-16T03:42:28.133Z,0
2018-06-16T03:43:37.338Z,0
2018-06-16T03:44:46.500Z,0
2018-06-16T03:45:55.931Z,0
2018-06-16T03:47:05.665Z,0
2018-06-16T03:48:14.837Z,0
2018-06-16T03:49:24.019Z,0
2018-06-16T03:50:33.254Z,0
2018-06-16T03:51:42.679Z,0
2018-06-16T03:52:51.599Z,0
2018-06-16T03:54:01.297Z,0
2018-06-16T03:55:10.712Z,0
2018-06-16T03:56:20.390Z,0
2018-06-16T03:57:29.855Z,0
2018-06-16T03:58:39.593Z,0
2018-06-16T03:59:49.018Z,0
2018-06-16T04:00:58.209Z,0
2018-06-16T04:02:07.900Z,0
2018-06-16T04:03:17.327Z,0
2018-06-16T04:04:26.236Z,0
2018-06-16T04:05:35.418Z,0
2018-06-16T04:06:44.387Z,0
2018-06-16T04:07:53.831Z,0
2018-06-16T04:09:03.296Z,0
2018-06-16T04:10:12.724Z,0
2018-06-16T04:11:22.419Z,0
2018-06-16T04:12:31.876Z,0
2018-06-16T04:13:41.566Z,0
2018-06-16T04:14:51.054Z,0
2018-06-16T04:16:00.993Z,4
2018-06-16T04:17:10.465Z,4
2018-06-16T04:18:19.892Z,4
2018-06-16T04:19:28.808Z,4
2018-06-16T04:20:38.508Z,4
2018-06-16T04:21:47.945Z,4
2018-06-16T04:22:57.627Z,4
2018-06-16T04:24:07.391Z,4
2018-06-16T04:25:16.630Z,4
2018-06-16T04:26:25.791Z,4
2018-06-16T04:27:35.486Z,4
2018-06-16T04:28:44.423Z,0
2018-06-16T04:29:53.346Z,0
2018-06-16T04:31:02.523Z,0
2018-06-16T04:32:12.461Z,0
2018-06-16T04:33:21.115Z,0
2018-06-16T04:34:30.549Z,0
2018-06-16T04:35:39.971Z,0
2018-06-16T04:36:49.683Z,0
2018-06-16T04:37:58.584Z,0
2018-06-16T04:39:08.062Z,0
2018-06-16T04:40:16.972Z,0
2018-06-16T04:41:26.404Z,0
2018-06-16T04:42:35.827Z,0
2018-06-16T04:43:45.335Z,0
2018-06-16T04:44:54.528Z,0
2018-06-16T04:46:03.950Z,0
2018-06-16T04:47:13.141Z,0
2018-06-16T04:48:22.584Z,0
2018-06-16T04:49:31.785Z,0
2018-06-16T04:50:41.013Z,0
2018-06-16T04:51:50.707Z,0
2018-06-16T04:53:00.167Z,0
2018-06-16T04:54:09.336Z,0
2018-06-16T04:55:18.754Z,0
2018-06-16T04:56:28.702Z,0
2018-06-16T04:57:38.415Z,4
2018-06-16T04:58:48.101Z,4
2018-06-16T04:59:57.556Z,4
2018-06-16T05:01:07.257Z,4
2018-06-16T05:02:16.169Z,4
2018-06-16T05:03:26.107Z,4
2018-06-16T05:04:35.786Z,4
2018-06-16T05:05:45.209Z,4
2018-06-16T05:06:55.150Z,4
2018-06-16T05:08:04.324Z,4
2018-06-16T05:09:14.047Z,4
2018-06-16T05:10:23.480Z,4
2018-06-16T05:11:32.645Z,4
2018-06-16T05:12:42.618Z,4
2018-06-16T05:13:52.298Z,4
2018-06-16T05:15:01.760Z,4
2018-06-16T05:16:11.448Z,4
2018-06-16T05:17:20.637Z,4
2018-06-16T05:18:30.346Z,4
2018-06-16T05:19:39.526Z,4
2018-06-16T05:20:48.958Z,4
2018-06-16T05:21:58.888Z,0
2018-06-16T05:23:08.383Z,4
2018-06-16T05:24:18.164Z,4
2018-06-16T05:25:27.603Z,4
2018-06-16T05:26:37.067Z,4
2018-06-16T05:27:46.244Z,4
2018-06-16T05:28:55.930Z,4
2018-06-16T05:30:05.100Z,4
2018-06-16T05:31:14.528Z,4
2018-06-16T05:32:23.953Z,4
2018-06-16T05:33:33.664Z,4
2018-06-16T05:34:42.829Z,4
2018-06-16T05:35:52.270Z,4
2018-06-16T05:37:01.683Z,4
2018-06-16T05:38:11.108Z,4
2018-06-16T05:39:20.298Z,8
2018-06-16T05:40:29.227Z,8
2018-06-16T05:41:38.419Z,4
2018-06-16T05:42:47.578Z,4
2018-06-16T05:43:57.019Z,4
2018-06-16T05:45:05.926Z,8
2018-06-16T05:46:15.098Z,8
2018-06-16T05:47:24.538Z,4
2018-06-16T05:48:33.461Z,8
2018-06-16T05:49:43.196Z,8
2018-06-16T05:50:52.370Z,4
2018-06-16T05:52:01.811Z,8
2018-06-16T05:53:11.270Z,8
2018-06-16T05:54:20.230Z,8
2018-06-16T05:55:29.700Z,8
2018-06-16T05:56:39.157Z,8
2018-06-16T05:57:48.367Z,4
2018-06-16T05:58:58.073Z,8
2018-06-16T06:00:07.528Z,4
2018-06-16T06:01:16.440Z,4
2018-06-16T06:02:26.159Z,8
2018-06-16T06:03:35.567Z,4
2018-06-16T06:04:45.257Z,8
2018-06-16T06:05:54.706Z,12
2018-06-16T06:07:03.895Z,8
2018-06-16T06:08:13.058Z,8
2018-06-16T06:09:22.751Z,12
2018-06-16T06:10:32.827Z,12
2018-06-16T06:11:42.934Z,20
2018-06-16T06:12:52.384Z,16
2018-06-16T06:14:01.301Z,12
2018-06-16T06:15:10.217Z,12
2018-06-16T06:16:19.645Z,16
2018-06-16T06:17:29.317Z,12
2018-06-16T06:18:38.744Z,8
2018-06-16T06:19:48.186Z,12
2018-06-16T06:20:57.356Z,8
2018-06-16T06:22:06.572Z,8
2018-06-16T06:23:16.303Z,8
2018-06-16T06:24:26.253Z,8
2018-06-16T06:25:36.005Z,8
2018-06-16T06:26:45.940Z,8
2018-06-16T06:27:55.368Z,12
2018-06-16T06:29:05.145Z,12
2018-06-16T06:30:14.348Z,8
2018-06-16T06:31:23.856Z,8
2018-06-16T06:32:33.818Z,12
2018-06-16T06:33:43.377Z,8
2018-06-16T06:34:53.063Z,8
2018-06-16T06:36:03.042Z,8
2018-06-16T06:37:13.183Z,12
2018-06-16T06:38:22.637Z,12
2018-06-16T06:39:31.534Z,12
2018-06-16T06:40:40.997Z,16
2018-06-16T06:41:50.446Z,12
2018-06-16T06:43:00.389Z,8
2018-06-16T06:44:09.652Z,8
2018-06-16T06:45:19.324Z,4
2018-06-16T06:46:28.752Z,4
2018-06-16T06:47:37.936Z,4
2018-06-16T06:48:47.504Z,8
2018-06-16T06:49:57.242Z,8
2018-06-16T06:51:06.485Z,8
2018-06-16T06:52:15.662Z,8
2018-06-16T06:53:24.317Z,12
2018-06-16T06:54:34.006Z,12
2018-06-16T06:55:43.437Z,12
2018-06-16T06:56:52.597Z,8
2018-06-16T06:58:02.418Z,12
2018-06-16T06:59:11.304Z,8
2018-06-16T07:00:21.293Z,8
2018-06-16T07:01:31.047Z,8
2018-06-16T07:02:40.743Z,12
2018-06-16T07:03:49.906Z,8
2018-06-16T07:04:58.823Z,12
2018-06-16T07:06:08.265Z,12
2018-06-16T07:07:17.775Z,8
2018-06-16T07:08:27.507Z,8
2018-06-16T07:09:37.168Z,8
2018-06-16T07:10:46.663Z,8
2018-06-16T07:11:56.470Z,16
2018-06-16T07:13:05.658Z,16
2018-06-16T07:14:14.904Z,16
2018-06-16T07:15:24.343Z,16
2018-06-16T07:16:33.515Z,20
2018-06-16T07:17:43.204Z,20
2018-06-16T07:18:52.142Z,20
2018-06-16T07:20:01.070Z,16
2018-06-16T07:21:10.485Z,16
2018-06-16T07:22:20.195Z,16
2018-06-16T07:23:29.914Z,16
2018-06-16T07:24:39.966Z,16
2018-06-16T07:25:49.393Z,16
2018-06-16T07:26:58.291Z,16
2018-06-16T07:28:07.756Z,8
2018-06-16T07:29:17.729Z,12
2018-06-16T07:30:27.511Z,16
2018-06-16T07:31:36.938Z,16
2018-06-16T07:32:46.107Z,20
2018-06-16T07:33:55.254Z,16
2018-06-16T07:35:03.923Z,16
2018-06-16T07:36:13.528Z,12
2018-06-16T07:37:23.045Z,16
2018-06-16T07:38:32.210Z,12
2018-06-16T07:39:41.895Z,8
2018-06-16T07:40:51.334Z,8
2018-06-16T07:42:00.517Z,12
2018-06-16T07:43:09.981Z,12
2018-06-16T07:44:19.144Z,12
2018-06-16T07:45:28.839Z,8
2018-06-16T07:46:38.535Z,8
2018-06-16T07:47:47.711Z,8
2018-06-16T07:48:57.018Z,8
2018-06-16T07:50:06.144Z,8
2018-06-16T07:51:15.563Z,8
2018-06-16T07:52:25.004Z,4
2018-06-16T07:53:34.467Z,4
2018-06-16T07:54:43.911Z,8
2018-06-16T07:55:53.611Z,8
2018-06-16T07:57:02.809Z,8
2018-06-16T07:58:12.243Z,8
2018-06-16T07:59:21.181Z,8
2018-06-16T08:00:30.873Z,8
2018-06-16T08:01:40.590Z,12
2018-06-16T08:02:50.144Z,16
2018-06-16T08:03:59.927Z,16
2018-06-16T08:05:08.850Z,12
2018-06-16T08:06:18.317Z,12
2018-06-16T08:07:27.744Z,12
2018-06-16T08:08:36.660Z,8
2018-06-16T08:09:46.085Z,12
2018-06-16T08:10:55.577Z,12
2018-06-16T08:12:04.794Z,8
2018-06-16T08:13:14.210Z,12
2018-06-16T08:14:23.631Z,12
2018-06-16T08:15:32.556Z,12
2018-06-16T08:16:42.249Z,12
2018-06-16T08:17:51.931Z,8
2018-06-16T08:19:01.354Z,12
2018-06-16T08:20:10.265Z,12
2018-06-16T08:21:19.711Z,12
2018-06-16T08:22:29.675Z,12
2018-06-16T08:23:39.626Z,12
2018-06-16T08:24:49.052Z,12
2018-06-16T08:25:58.788Z,12
2018-06-16T08:27:07.982Z,12
2018-06-16T08:28:17.159Z,12
2018-06-16T08:29:26.598Z,12
2018-06-16T08:30:35.543Z,8
2018-06-16T08:31:44.969Z,12
2018-06-16T08:32:54.828Z,12
2018-06-16T08:34:04.091Z,12
2018-06-16T08:35:13.540Z,12
2018-06-16T08:36:22.966Z,12
2018-06-16T08:37:32.654Z,8
2018-06-16T08:38:42.354Z,8
2018-06-16T08:39:51.542Z,12
2018-06-16T08:41:00.982Z,12
2018-06-16T08:42:09.921Z,8
2018-06-16T08:43:19.911Z,12
2018-06-16T08:44:29.677Z,8
2018-06-16T08:45:39.104Z,8
2018-06-16T08:46:48.311Z,12
2018-06-16T08:47:57.243Z,12
2018-06-16T08:49:06.203Z,12
2018-06-16T08:50:15.624Z,16
2018-06-16T08:51:25.093Z,16
2018-06-16T08:52:34.261Z,16
2018-06-16T08:53:43.687Z,16
2018-06-16T08:54:53.135Z,12
2018-06-16T08:56:02.358Z,16
2018-06-16T08:57:11.539Z,20
2018-06-16T08:58:20.193Z,16
2018-06-16T08:59:30.220Z,12
2018-06-16T09:00:39.435Z,16
2018-06-16T09:01:49.112Z,16
2018-06-16T09:02:58.565Z,20
2018-06-16T09:04:07.494Z,20
2018-06-16T09:05:16.942Z,16
2018-06-16T09:06:26.368Z,16
2018-06-16T09:07:35.796Z,20
2018-06-16T09:08:45.223Z,16
2018-06-16T09:09:54.687Z,20
2018-06-16T09:11:04.110Z,20
2018-06-16T09:12:13.792Z,20
2018-06-16T09:13:23.241Z,20
2018-06-16T09:14:32.412Z,20
2018-06-16T09:15:41.361Z,24
2018-06-16T09:16:50.552Z,24
2018-06-16T09:18:00.294Z,16
2018-06-16T09:19:09.459Z,20
2018-06-16T09:20:18.434Z,12
2018-06-16T09:21:27.853Z,20
2018-06-16T09:22:37.467Z,24
2018-06-16T09:23:46.300Z,24
2018-06-16T09:24:55.746Z,24
2018-06-16T09:26:04.900Z,24
2018-06-16T09:27:14.615Z,24
2018-06-16T09:28:24.044Z,24
2018-06-16T09:29:33.470Z,24
2018-06-16T09:30:42.899Z,20
2018-06-16T09:31:52.404Z,20
2018-06-16T09:33:01.672Z,24
2018-06-16T09:34:10.333Z,24
2018-06-16T09:35:20.014Z,20
2018-06-16T09:36:28.933Z,24
2018-06-16T09:37:38.197Z,24
2018-06-16T09:38:47.631Z,20
2018-06-16T09:39:57.055Z,20
2018-06-16T09:41:06.236Z,24
2018-06-16T09:42:15.464Z,24
2018-06-16T09:43:24.415Z,24
2018-06-16T09:44:33.085Z,24
2018-06-16T09:45:42.251Z,24
2018-06-16T09:46:52.024Z,20
2018-06-16T09:48:01.456Z,20
2018-06-16T09:49:10.366Z,20
2018-06-16T09:50:19.797Z,20
2018-06-16T09:51:29.741Z,24
2018-06-16T09:52:39.166Z,24
2018-06-16T09:53:48.592Z,24
2018-06-16T09:54:57.795Z,24
2018-06-16T09:56:07.207Z,24
2018-06-16T09:57:16.390Z,24
2018-06-16T09:58:26.075Z,24
2018-06-16T09:59:35.515Z,24
2018-06-16T10:00:44.715Z,20
2018-06-16T10:01:54.404Z,20
2018-06-16T10:03:04.160Z,20
2018-06-16T10:04:13.892Z,20
2018-06-16T10:05:23.079Z,16
2018-06-16T10:06:32.260Z,16
2018-06-16T10:07:41.793Z,20
2018-06-16T10:08:51.648Z,20
2018-06-16T10:10:01.441Z,16
2018-06-16T10:11:10.667Z,20
2018-06-16T10:12:20.106Z,20
2018-06-16T10:13:29.674Z,16
2018-06-16T10:14:39.421Z,16
2018-06-16T10:15:48.355Z,16
2018-06-16T10:16:57.944Z,20
2018-06-16T10:18:07.245Z,16
2018-06-16T10:19:16.416Z,20
2018-06-16T10:20:26.357Z,20
2018-06-16T10:21:36.040Z,20
2018-06-16T10:22:45.365Z,16
2018-06-16T10:23:54.736Z,16
2018-06-16T10:25:03.913Z,16
2018-06-16T10:26:13.277Z,16
2018-06-16T10:27:22.255Z,16
2018-06-16T10:28:31.755Z,12
2018-06-16T10:29:40.953Z,12
2018-06-16T10:30:50.444Z,12
2018-06-16T10:32:00.196Z,16
2018-06-16T10:33:10.077Z,12
2018-06-16T10:34:19.440Z,20
2018-06-16T10:35:28.420Z,20
2018-06-16T10:36:37.864Z,16
2018-06-16T10:37:47.658Z,16
2018-06-16T10:38:57.026Z,20
2018-06-16T10:40:06.811Z,24
2018-06-16T10:41:16.253Z,24
2018-06-16T10:42:25.177Z,16
2018-06-16T10:43:34.656Z,16
2018-06-16T10:44:44.371Z,16
2018-06-16T10:45:54.090Z,16
2018-06-16T10:47:03.900Z,20
2018-06-16T10:48:13.373Z,24
2018-06-16T10:49:23.067Z,28
2018-06-16T10:50:32.427Z,24
2018-06-16T10:51:42.409Z,20
2018-06-16T10:52:52.133Z,20
2018-06-16T10:54:01.334Z,16
2018-06-16T10:55:10.842Z,16
2018-06-16T10:56:20.582Z,16
2018-06-16T10:57:30.535Z,16
2018-06-16T10:58:40.494Z,16
2018-06-16T10:59:50.010Z,20
2018-06-16T11:00:59.212Z,16
2018-06-16T11:02:08.159Z,20
2018-06-16T11:03:17.658Z,20
2018-06-16T11:04:26.610Z,16
2018-06-16T11:05:35.657Z,16
2018-06-16T11:06:45.293Z,20
2018-06-16T11:07:55.073Z,12
2018-06-16T11:09:04.786Z,12
2018-06-16T11:10:14.055Z,12
2018-06-16T11:11:23.866Z,12
2018-06-16T11:12:33.136Z,12
2018-06-16T11:13:42.555Z,16
2018-06-16T11:14:52.123Z,12
2018-06-16T11:16:01.885Z,16
2018-06-16T11:17:11.348Z,16
2018-06-16T11:18:20.641Z,16
2018-06-16T11:19:30.373Z,16
2018-06-16T11:20:39.810Z,20
2018-06-16T11:21:49.341Z,16
2018-06-16T11:22:58.557Z,16
2018-06-16T11:24:07.983Z,16
2018-06-16T11:25:17.680Z,16
2018-06-16T11:26:27.146Z,16
2018-06-16T11:27:36.377Z,20
2018-06-16T11:28:45.585Z,16
2018-06-16T11:29:55.297Z,20
2018-06-16T11:31:04.722Z,16
2018-06-16T11:32:14.456Z,12
2018-06-16T11:33:24.242Z,12
2018-06-16T11:34:33.830Z,24
2018-06-16T11:35:42.507Z,24
2018-06-16T11:36:52.257Z,24
2018-06-16T11:38:01.780Z,24
2018-06-16T11:39:12.590Z,16
2018-06-16T11:40:22.095Z,12
2018-06-16T11:41:31.079Z,16
2018-06-16T11:42:40.358Z,16
2018-06-16T11:43:49.549Z,12
2018-06-16T11:44:58.987Z,12
2018-06-16T11:46:07.924Z,16
2018-06-16T11:47:17.503Z,16
2018-06-16T11:48:26.970Z,16
2018-06-16T11:49:36.661Z,24
2018-06-16T11:50:46.539Z,16
2018-06-16T11:51:56.274Z,16
2018-06-16T11:53:05.268Z,12
2018-06-16T11:54:14.739Z,8
2018-06-16T11:55:23.967Z,12
2018-06-16T11:56:33.718Z,8
2018-06-16T11:57:44.118Z,12
2018-06-16T11:58:53.700Z,16
2018-06-16T12:00:02.870Z,12
2018-06-16T12:01:12.321Z,16
2018-06-16T12:02:22.316Z,24
2018-06-16T12:03:32.314Z,28
2018-06-16T12:04:41.580Z,20
2018-06-16T12:05:51.350Z,28
2018-06-16T12:07:00.829Z,12
2018-06-16T12:08:10.064Z,12
2018-06-16T12:09:19.328Z,12
2018-06-16T12:10:28.721Z,12
2018-06-16T12:11:38.410Z,16
2018-06-16T12:12:47.866Z,16
2018-06-16T12:13:57.437Z,16
2018-06-16T12:15:06.900Z,32
2018-06-16T12:16:16.328Z,28
2018-06-16T12:17:25.812Z,20
2018-06-16T12:18:35.547Z,12
2018-06-16T12:19:44.744Z,8
2018-06-16T12:20:53.987Z,8
2018-06-16T12:22:03.155Z,8
2018-06-16T12:23:12.644Z,12
2018-06-16T12:24:21.811Z,12
2018-06-16T12:25:31.395Z,12
2018-06-16T12:26:40.892Z,16
2018-06-16T12:27:50.074Z,12
2018-06-16T12:28:59.521Z,16
2018-06-16T12:30:09.170Z,12
2018-06-16T12:31:18.366Z,12
2018-06-16T12:32:27.814Z,8
2018-06-16T12:33:37.249Z,8
2018-06-16T12:34:46.487Z,8
2018-06-16T12:35:55.727Z,12
2018-06-16T12:37:05.742Z,8
2018-06-16T12:38:15.558Z,8
2018-06-16T12:39:25.333Z,8
2018-06-16T12:40:34.563Z,8
2018-06-16T12:41:44.569Z,8
2018-06-16T12:42:54.102Z,8
2018-06-16T12:44:03.613Z,8
2018-06-16T12:45:13.310Z,4
2018-06-16T12:46:23.511Z,4
2018-06-16T12:47:33.255Z,8
2018-06-16T12:48:42.715Z,8
2018-06-16T12:49:52.182Z,8
2018-06-16T12:51:01.953Z,8
2018-06-16T12:52:11.581Z,8
2018-06-16T12:53:21.013Z,8
2018-06-16T12:54:30.179Z,8
2018-06-16T12:55:39.406Z,4
2018-06-16T12:56:48.645Z,4
2018-06-16T12:57:58.917Z,4
2018-06-16T12:59:08.078Z,4
2018-06-16T13:00:17.235Z,4
2018-06-16T13:01:27.217Z,4
2018-06-16T13:02:36.241Z,4
2018-06-16T13:03:45.708Z,4
2018-06-16T13:04:54.864Z,4
2018-06-16T13:06:04.291Z,4
2018-06-16T13:07:14.015Z,8
2018-06-16T13:08:23.239Z,8
2018-06-16T13:09:33.073Z,8
2018-06-16T13:10:42.347Z,8
2018-06-16T13:11:51.831Z,8
2018-06-16T13:13:00.762Z,8
2018-06-16T13:14:09.953Z,8
2018-06-16T13:15:19.142Z,12
2018-06-16T13:16:28.116Z,8
2018-06-16T13:17:37.634Z,12
2018-06-16T13:18:47.382Z,12
2018-06-16T13:19:56.309Z,12
2018-06-16T13:21:05.917Z,8
2018-06-16T13:22:15.353Z,8
2018-06-16T13:23:25.092Z,8
2018-06-16T13:24:34.517Z,8
2018-06-16T13:25:44.223Z,8
2018-06-16T13:26:53.512Z,8
2018-06-16T13:28:02.734Z,8
2018-06-16T13:29:12.106Z,4
2018-06-16T13:30:21.905Z,8
2018-06-16T13:31:31.118Z,8
2018-06-16T13:32:40.611Z,8
2018-06-16T13:33:50.266Z,8
2018-06-16T13:34:59.985Z,4
2018-06-16T13:36:09.628Z,8
2018-06-16T13:37:18.858Z,8
2018-06-16T13:38:28.082Z,8
2018-06-16T13:39:37.875Z,8
2018-06-16T13:40:47.055Z,8
2018-06-16T13:41:56.792Z,8
2018-06-16T13:43:06.027Z,8
2018-06-16T13:44:15.297Z,8
2018-06-16T13:45:25.052Z,8
2018-06-16T13:46:34.776Z,8
2018-06-16T13:47:44.224Z,12
2018-06-16T13:48:53.973Z,12
2018-06-16T13:50:03.164Z,16
2018-06-16T13:51:12.357Z,16
2018-06-16T13:52:21.793Z,12
2018-06-16T13:53:31.506Z,16
2018-06-16T13:54:40.483Z,48
2018-06-16T13:55:49.681Z,16
2018-06-16T13:56:59.408Z,24
2018-06-16T13:58:08.903Z,16
2018-06-16T13:59:18.361Z,16
2018-06-16T14:00:27.574Z,20
2018-06-16T14:01:37.267Z,56
2018-06-16T14:02:46.566Z,40
2018-06-16T14:03:55.986Z,16
2018-06-16T14:05:05.660Z,24
2018-06-16T14:06:15.084Z,56
2018-06-16T14:07:24.902Z,48
2018-06-16T14:08:34.375Z,16
2018-06-16T14:09:43.905Z,12
2018-06-16T14:10:53.367Z,12
2018-06-16T14:12:03.208Z,12
2018-06-16T14:13:12.893Z,16
2018-06-16T14:14:22.369Z,60
2018-06-16T14:15:31.828Z,16
2018-06-16T14:16:41.290Z,12
2018-06-16T14:17:50.786Z,12
2018-06-16T14:19:00.281Z,12
2018-06-16T14:20:08.953Z,12
2018-06-16T14:21:18.423Z,16
2018-06-16T14:22:28.133Z,28
2018-06-16T14:23:37.876Z,60
2018-06-16T14:24:47.239Z,60
2018-06-16T14:25:57.053Z,36
2018-06-16T14:27:06.244Z,24
2018-06-16T14:28:15.444Z,20
2018-06-16T14:29:24.950Z,16
2018-06-16T14:30:34.395Z,16
2018-06-16T14:31:43.317Z,12
2018-06-16T14:32:52.564Z,12
2018-06-16T14:34:02.106Z,16
2018-06-16T14:35:11.815Z,52
2018-06-16T14:36:21.410Z,48
2018-06-16T14:37:31.127Z,48
2018-06-16T14:38:40.353Z,44
2018-06-16T14:39:49.610Z,44
2018-06-16T14:40:59.046Z,36
2018-06-16T14:42:08.000Z,44
2018-06-16T14:43:17.812Z,40
2018-06-16T14:44:27.488Z,44
2018-06-16T14:45:36.941Z,40
2018-06-16T14:46:46.376Z,40
2018-06-16T14:47:55.576Z,36
2018-06-16T14:49:05.305Z,36
2018-06-16T14:50:14.834Z,8
2018-06-16T14:51:23.954Z,8
2018-06-16T14:52:33.226Z,8
2018-06-16T14:53:42.724Z,8
2018-06-16T14:54:51.921Z,24
2018-06-16T14:56:02.061Z,16
2018-06-16T14:57:11.606Z,32
2018-06-16T14:58:21.321Z,36
2018-06-16T14:59:30.838Z,36
2018-06-16T15:00:40.441Z,32
2018-06-16T15:01:49.921Z,36
2018-06-16T15:02:59.676Z,32
2018-06-16T15:04:09.173Z,20
2018-06-16T15:05:18.953Z,12
2018-06-16T15:06:28.468Z,32
2018-06-16T15:07:38.149Z,28
2018-06-16T15:08:47.584Z,28
2018-06-16T15:09:56.823Z,20
2018-06-16T15:11:05.943Z,24
2018-06-16T15:12:15.168Z,20
2018-06-16T15:13:24.693Z,28
2018-06-16T15:14:34.020Z,32
2018-06-16T15:15:43.493Z,12
2018-06-16T15:16:53.002Z,12
2018-06-16T15:18:02.464Z,20
2018-06-16T15:19:11.938Z,20
2018-06-16T15:20:21.139Z,12
2018-06-16T15:21:30.592Z,12
2018-06-16T15:22:40.095Z,12
2018-06-16T15:23:49.856Z,8
2018-06-16T15:24:59.326Z,8
2018-06-16T15:26:08.540Z,8
2018-06-16T15:27:17.822Z,8
2018-06-16T15:28:27.313Z,4
2018-06-16T15:29:36.735Z,4
2018-06-16T15:30:46.447Z,8
2018-06-16T15:31:55.633Z,8
2018-06-16T15:33:05.389Z,8
2018-06-16T15:34:14.941Z,4
2018-06-16T15:35:24.673Z,4
2018-06-16T15:36:34.120Z,8
2018-06-16T15:37:43.589Z,4
2018-06-16T15:38:52.322Z,4
2018-06-16T15:40:01.892Z,4
2018-06-16T15:41:12.002Z,4
2018-06-16T15:42:20.962Z,4
2018-06-16T15:43:30.767Z,4
2018-06-16T15:44:40.482Z,0
2018-06-16T15:45:50.212Z,0
2018-06-16T15:46:59.928Z,4
2018-06-16T15:48:09.625Z,0
2018-06-16T15:49:19.313Z,0
2018-06-16T15:50:28.544Z,0
2018-06-16T15:51:37.506Z,0
2018-06-16T15:52:46.743Z,0
2018-06-16T15:53:56.214Z,0
2018-06-16T15:55:06.117Z,0
2018-06-16T15:56:15.665Z,0
2018-06-16T15:57:25.091Z,0
2018-06-16T15:58:34.229Z,0
2018-06-16T15:59:43.457Z,0
2018-06-16T16:00:53.259Z,0
2018-06-16T16:02:02.518Z,0
2018-06-16T16:03:11.701Z,4
2018-06-16T16:04:20.716Z,4
2018-06-16T16:05:29.716Z,4
2018-06-16T16:06:39.433Z,4
2018-06-16T16:07:49.435Z,4
2018-06-16T16:08:58.715Z,4
2018-06-16T16:10:07.684Z,4
2018-06-16T16:11:16.615Z,4
2018-06-16T16:12:25.759Z,4
2018-06-16T16:13:34.691Z,4
2018-06-16T16:14:43.928Z,4
2018-06-16T16:15:53.413Z,4
2018-06-16T16:17:02.876Z,0
2018-06-16T16:18:12.823Z,0
2018-06-16T16:19:21.501Z,0
2018-06-16T16:20:31.061Z,0
2018-06-16T16:21:40.256Z,4
2018-06-16T16:22:49.448Z,4
2018-06-16T16:23:58.927Z,4
2018-06-16T16:25:08.404Z,4
2018-06-16T16:26:17.853Z,4
2018-06-16T16:27:27.652Z,4
2018-06-16T16:28:37.110Z,4
2018-06-16T16:29:46.524Z,4
2018-06-16T16:30:55.727Z,0
2018-06-16T16:32:05.000Z,0
2018-06-16T16:33:14.736Z,0
2018-06-16T16:34:24.214Z,0
2018-06-16T16:35:33.072Z,0
2018-06-16T16:36:42.789Z,0
2018-06-16T16:37:52.795Z,0
2018-06-16T16:39:02.232Z,0
2018-06-16T16:40:11.668Z,0
2018-06-16T16:41:21.115Z,0
2018-06-16T16:42:30.797Z,4
2018-06-16T16:43:39.992Z,4
2018-06-16T16:44:50.029Z,4
2018-06-16T16:45:59.337Z,4
2018-06-16T16:47:09.082Z,0
2018-06-16T16:48:18.787Z,0
2018-06-16T16:49:28.202Z,0
2018-06-16T16:50:37.711Z,4
2018-06-16T16:51:47.500Z,4